createdAt,value
2022-10-20T00:00:09.178Z,3.50
2022-10-20T00:02:57.456Z,1.20
2022-10-20T00:05:27.798Z,3.10
2022-10-20T00:07:56.479Z,0.60
2022-10-20T00:10:24.693Z,0.50
2022-10-20T00:12:52.347Z,2.40
2022-10-20T00:15:21.348Z,1.40
2022-10-20T00:17:50.379Z,1.20
2022-10-20T00:20:18.246Z,1.60
2022-10-20T00:22:46.125Z,3.20
2022-10-20T00:25:14.246Z,1.20
2022-10-20T00:27:42.493Z,2.40
2022-10-20T00:30:11.384Z,0.60
2022-10-20T00:32:40.575Z,1.40
2022-10-20T00:35:09.274Z,1.00
2022-10-20T00:37:37.028Z,1.10
2022-10-20T00:40:06.985Z,1.00
2022-10-20T00:42:35.209Z,1.00
2022-10-20T00:45:11.884Z,1.10
2022-10-20T00:47:49.052Z,1.40
2022-10-20T00:50:25.887Z,0.60
2022-10-20T00:52:56.437Z,0.60
2022-10-20T00:55:32.346Z,0.50
2022-10-20T00:58:02.276Z,1.10
2022-10-20T01:00:32.160Z,0.80
2022-10-20T01:03:04.030Z,3.20
2022-10-20T01:05:32.187Z,0.80
2022-10-20T01:08:02.122Z,0.60
2022-10-20T01:10:46.986Z,1.80
2022-10-20T01:13:50.148Z,0.90
2022-10-20T01:16:38.945Z,0.90
2022-10-20T01:19:34.288Z,1.20
2022-10-20T01:22:25.394Z,0.60
2022-10-20T01:25:25.443Z,0.70
2022-10-20T01:28:11.187Z,0.80
2022-10-20T01:30:49.305Z,0.90
2022-10-20T01:33:36.883Z,0.90
2022-10-20T01:36:18.298Z,0.70
2022-10-20T01:39:01.535Z,0.70
2022-10-20T01:41:58.863Z,0.40
2022-10-20T01:44:33.956Z,0.60
2022-10-20T01:47:04.348Z,0.60
2022-10-20T01:49:32.607Z,0.80
2022-10-20T01:52:02.062Z,3.40
2022-10-20T01:54:30.878Z,1.50
2022-10-20T01:57:32.999Z,0.90
2022-10-20T02:00:17.519Z,1.00
2022-10-20T02:03:17.795Z,0.90
2022-10-20T02:06:00.935Z,0.80
2022-10-20T02:08:52.714Z,0.90
2022-10-20T02:11:57.245Z,0.90
2022-10-20T02:14:27.433Z,0.60
2022-10-20T02:17:06.250Z,1.20
2022-10-20T02:19:42.801Z,0.70
2022-10-20T02:22:15.289Z,4.00
2022-10-20T02:24:45.440Z,1.50
2022-10-20T02:27:23.762Z,0.80
2022-10-20T02:30:12.271Z,1.20
2022-10-20T02:32:43.282Z,0.50
2022-10-20T02:35:17.089Z,0.80
2022-10-20T02:37:45.684Z,0.90
2022-10-20T02:40:13.906Z,1.00
2022-10-20T02:42:44.600Z,0.80
2022-10-20T02:45:12.274Z,0.70
2022-10-20T02:47:41.494Z,1.20
2022-10-20T02:50:17.216Z,1.00
2022-10-20T02:52:47.846Z,1.20
2022-10-20T02:55:15.656Z,0.70
2022-10-20T02:57:44.205Z,0.80
2022-10-20T03:00:14.169Z,0.60
2022-10-20T03:02:43.525Z,1.00
2022-10-20T03:05:11.317Z,0.80
2022-10-20T03:07:39.148Z,0.80
2022-10-20T03:10:09.166Z,0.50
2022-10-20T03:12:36.997Z,0.50
2022-10-20T03:15:05.727Z,0.50
2022-10-20T03:17:34.125Z,0.70
2022-10-20T03:20:07.058Z,2.00
2022-10-20T03:22:34.768Z,0.90
2022-10-20T03:25:03.551Z,0.70
2022-10-20T03:27:31.308Z,2.00
2022-10-20T03:29:58.976Z,0.50
2022-10-20T03:32:30.429Z,2.30
2022-10-20T03:35:00.789Z,0.80
2022-10-20T03:37:28.473Z,0.60
2022-10-20T03:39:59.462Z,0.80
2022-10-20T03:42:27.224Z,0.60
2022-10-20T03:44:54.825Z,0.50
2022-10-20T03:47:26.443Z,0.70
2022-10-20T03:49:54.333Z,0.30
2022-10-20T03:52:25.307Z,0.30
2022-10-20T03:54:54.661Z,1.00
2022-10-20T03:57:22.709Z,0.50
2022-10-20T03:59:50.394Z,0.70
2022-10-20T04:02:45.066Z,0.70
2022-10-20T04:05:21.287Z,2.50
2022-10-20T04:07:51.467Z,0.80
2022-10-20T04:10:19.368Z,0.50
2022-10-20T04:12:48.159Z,0.50
2022-10-20T04:15:18.646Z,0.70
2022-10-20T04:17:49.192Z,0.40
2022-10-20T04:20:20.700Z,0.30
2022-10-20T04:22:48.723Z,0.60
2022-10-20T04:25:18.792Z,0.80
2022-10-20T04:27:47.998Z,0.80
2022-10-20T04:30:19.542Z,0.70
2022-10-20T04:32:49.936Z,0.70
2022-10-20T04:35:19.307Z,0.90
2022-10-20T04:37:48.139Z,0.70
2022-10-20T04:40:16.732Z,1.90
2022-10-20T04:42:45.792Z,1.20
2022-10-20T04:45:16.357Z,1.30
2022-10-20T04:47:44.393Z,1.00
2022-10-20T04:50:12.449Z,0.70
2022-10-20T04:52:41.154Z,0.70
2022-10-20T04:55:09.728Z,0.50
2022-10-20T04:57:39.316Z,1.00
2022-10-20T05:00:08.588Z,4.70
2022-10-20T05:02:37.834Z,0.80
2022-10-20T05:05:10.509Z,1.00
2022-10-20T05:07:38.434Z,0.40
2022-10-20T05:10:08.681Z,0.80
2022-10-20T05:12:36.868Z,0.70
2022-10-20T05:15:05.437Z,1.00
2022-10-20T05:17:33.710Z,1.00
2022-10-20T05:20:01.890Z,1.10
2022-10-20T05:22:31.270Z,1.90
2022-10-20T05:25:12.797Z,0.60
2022-10-20T05:27:50.569Z,1.50
2022-10-20T05:30:20.786Z,1.40
2022-10-20T05:32:48.797Z,2.20
2022-10-20T05:35:18.630Z,1.20
2022-10-20T05:37:46.890Z,1.60
2022-10-20T05:40:14.758Z,1.10
2022-10-20T05:42:45.364Z,0.60
2022-10-20T05:45:14.663Z,1.50
2022-10-20T05:47:44.216Z,1.10
2022-10-20T05:50:14.830Z,1.20
2022-10-20T05:52:43.549Z,2.00
2022-10-20T05:55:11.882Z,1.50
2022-10-20T05:57:43.283Z,5.00
2022-10-20T06:00:12.562Z,7.00
2022-10-20T06:02:40.295Z,9.00
2022-10-20T06:05:09.505Z,6.50
2022-10-20T06:07:40.844Z,10.70
2022-10-20T06:10:10.139Z,5.10
2022-10-20T06:12:42.849Z,1.10
2022-10-20T06:15:10.861Z,3.90
2022-10-20T06:17:42.132Z,2.90
2022-10-20T06:20:12.059Z,1.20
2022-10-20T06:22:40.385Z,2.70
2022-10-20T06:25:08.673Z,5.40
2022-10-20T06:27:37.666Z,3.10
2022-10-20T06:30:06.837Z,1.40
2022-10-20T06:32:36.679Z,1.50
2022-10-20T06:35:06.444Z,1.90
2022-10-20T06:37:34.553Z,1.90
2022-10-20T06:40:05.870Z,3.50
2022-10-20T06:42:35.097Z,2.40
2022-10-20T06:45:03.786Z,1.10
2022-10-20T06:47:31.822Z,4.50
2022-10-20T06:50:00.901Z,1.80
2022-10-20T06:52:28.612Z,1.80
2022-10-20T06:54:57.270Z,10.00
2022-10-20T06:57:26.937Z,3.00
2022-10-20T06:59:55.448Z,2.00
2022-10-20T07:02:23.084Z,3.10
2022-10-20T07:04:53.335Z,5.80
2022-10-20T07:07:21.001Z,1.40
2022-10-20T07:09:51.484Z,4.00
2022-10-20T07:12:19.920Z,1.70
2022-10-20T07:14:48.827Z,1.50
2022-10-20T07:17:17.765Z,5.30
2022-10-20T07:19:47.865Z,2.00
2022-10-20T07:22:15.887Z,2.00
2022-10-20T07:24:43.805Z,3.00
2022-10-20T07:27:12.355Z,1.90
2022-10-20T07:29:43.186Z,1.80
2022-10-20T07:32:11.701Z,2.20
2022-10-20T07:34:41.014Z,2.00
2022-10-20T07:37:10.056Z,2.90
2022-10-20T07:39:38.044Z,2.90
2022-10-20T07:42:08.279Z,4.60
2022-10-20T07:44:35.876Z,7.10
2022-10-20T07:50:04.241Z,2.50
2022-10-20T07:52:35.102Z,5.50
2022-10-20T07:55:23.898Z,2.70
2022-10-20T07:57:53.632Z,2.70
2022-10-20T08:00:21.729Z,1.40
2022-10-20T08:02:49.434Z,2.70
2022-10-20T08:05:17.466Z,3.00
2022-10-20T08:07:47.965Z,2.60
2022-10-20T08:10:16.376Z,5.30
2022-10-20T08:12:44.749Z,2.30
2022-10-20T08:15:14.787Z,4.50
2022-10-20T08:17:42.491Z,2.00
2022-10-20T08:20:20.351Z,1.50
2022-10-20T08:22:51.201Z,1.50
2022-10-20T08:25:20.968Z,1.50
2022-10-20T08:27:50.923Z,1.90
2022-10-20T08:30:23.961Z,3.00
2022-10-20T08:32:55.973Z,2.30
2022-10-20T08:35:24.445Z,3.50
2022-10-20T08:37:52.288Z,6.70
2022-10-20T08:40:29.579Z,7.30
2022-10-20T08:42:59.259Z,6.00
2022-10-20T08:45:29.393Z,3.00
2022-10-20T08:48:00.412Z,3.10
2022-10-20T08:50:28.732Z,2.70
2022-10-20T08:53:00.881Z,7.20
2022-10-20T08:55:33.417Z,7.20
2022-10-20T08:58:09.162Z,3.80
2022-10-20T09:00:39.433Z,4.70
2022-10-20T09:03:29.568Z,5.70
2022-10-20T09:06:07.992Z,1.60
2022-10-20T09:08:42.603Z,3.90
2022-10-20T09:11:32.258Z,2.10
2022-10-20T09:14:00.401Z,3.30
2022-10-20T09:16:58.564Z,2.70
2022-10-20T09:19:29.049Z,4.30
2022-10-20T09:22:08.204Z,2.40
2022-10-20T09:24:36.746Z,2.60
2022-10-20T09:27:38.250Z,4.20
2022-10-20T09:30:24.079Z,3.80
2022-10-20T09:32:54.140Z,3.40
2022-10-20T09:35:35.070Z,3.80
2022-10-20T09:38:18.750Z,4.30
2022-10-20T09:41:21.613Z,2.80
2022-10-20T09:43:58.671Z,6.00
2022-10-20T09:46:56.159Z,4.10
2022-10-20T09:49:32.420Z,3.90
2022-10-20T09:52:04.497Z,5.70
2022-10-20T09:54:38.346Z,3.50
2022-10-20T09:57:20.501Z,6.90
2022-10-20T09:59:58.629Z,6.20
2022-10-20T10:02:33.093Z,4.60
2022-10-20T10:05:20.895Z,4.80
2022-10-20T10:08:01.043Z,6.70
2022-10-20T10:10:32.098Z,2.00
2022-10-20T10:13:01.890Z,3.20
2022-10-20T10:15:43.890Z,7.60
2022-10-20T10:18:15.915Z,6.10
2022-10-20T10:20:43.995Z,8.40
2022-10-20T10:23:23.405Z,7.10
2022-10-20T10:25:53.113Z,7.00
2022-10-20T10:31:16.002Z,6.90
2022-10-20T10:33:45.289Z,7.50
2022-10-20T10:36:42.957Z,4.40
2022-10-20T10:39:16.897Z,4.20
2022-10-20T10:42:26.193Z,5.40
2022-10-20T10:45:19.424Z,8.40
2022-10-20T10:48:45.738Z,5.10
2022-10-20T10:51:24.421Z,3.50
2022-10-20T10:54:14.796Z,4.90
2022-10-20T10:56:56.017Z,4.70
2022-10-20T10:59:33.262Z,2.90
2022-10-20T11:03:00.721Z,4.70
2022-10-20T11:06:00.087Z,2.70
2022-10-20T11:09:15.696Z,12.30
2022-10-20T11:12:15.281Z,5.20
2022-10-20T11:15:34.761Z,2.20
2022-10-20T11:18:46.751Z,6.50
2022-10-20T11:21:47.319Z,3.60
2022-10-20T11:25:00.394Z,4.50
2022-10-20T11:27:36.188Z,4.10
2022-10-20T11:30:21.635Z,5.10
2022-10-20T11:33:28.777Z,6.10
2022-10-20T11:36:29.066Z,5.00
2022-10-20T11:39:26.410Z,5.40
2022-10-20T11:42:05.634Z,5.70
2022-10-20T11:44:42.104Z,6.30
2022-10-20T11:47:18.362Z,2.50
2022-10-20T11:49:46.683Z,6.20
2022-10-20T11:53:19.500Z,5.60
2022-10-20T11:56:18.930Z,7.40
2022-10-20T11:59:20.716Z,6.20
2022-10-20T12:02:45.769Z,4.60
2022-10-20T12:05:39.304Z,8.80
2022-10-20T12:08:44.428Z,6.90
2022-10-20T12:11:36.507Z,8.40
2022-10-20T12:14:16.212Z,11.20
2022-10-20T12:16:55.842Z,7.40
2022-10-20T12:19:27.466Z,8.40
2022-10-20T12:22:13.650Z,12.50
2022-10-20T12:24:54.533Z,9.60
2022-10-20T12:27:30.551Z,5.40
2022-10-20T12:30:43.537Z,6.20
2022-10-20T12:33:20.734Z,8.90
2022-10-20T12:36:20.352Z,8.00
2022-10-20T12:39:21.750Z,6.40
2022-10-20T12:42:01.422Z,10.60
2022-10-20T12:44:42.403Z,9.50
2022-10-20T12:47:19.007Z,10.70
2022-10-20T12:49:59.840Z,9.90
2022-10-20T12:52:39.686Z,10.80
2022-10-20T12:55:44.447Z,11.30
2022-10-20T12:58:20.010Z,11.20
2022-10-20T13:00:47.771Z,10.00
2022-10-20T13:03:38.983Z,6.10
2022-10-20T13:06:30.808Z,10.20
2022-10-20T13:09:21.365Z,13.40
2022-10-20T13:12:00.465Z,10.20
2022-10-20T13:14:44.407Z,13.80
2022-10-20T13:17:29.103Z,11.10
2022-10-20T13:20:23.014Z,12.00
2022-10-20T13:23:15.737Z,5.90
2022-10-20T13:25:52.481Z,5.50
2022-10-20T13:28:28.108Z,7.90
2022-10-20T13:31:09.587Z,9.30
2022-10-20T13:34:05.988Z,14.10
2022-10-20T13:37:02.683Z,2.90
2022-10-20T13:40:40.805Z,10.00
2022-10-20T13:43:27.587Z,10.90
2022-10-20T13:47:14.673Z,7.10
2022-10-20T13:50:23.969Z,7.90
2022-10-20T13:53:20.764Z,10.20
2022-10-20T13:59:40.657Z,8.50
2022-10-20T14:02:36.479Z,15.80
2022-10-20T14:05:14.929Z,11.70
2022-10-20T14:07:56.244Z,10.40
2022-10-20T14:11:08.544Z,7.80
2022-10-20T14:13:39.638Z,9.10
2022-10-20T14:16:22.326Z,9.40
2022-10-20T14:19:13.710Z,13.80
2022-10-20T14:21:52.852Z,18.70
2022-10-20T14:25:00.607Z,9.30
2022-10-20T14:27:36.590Z,10.60
2022-10-20T14:30:08.652Z,11.70
2022-10-20T14:32:42.649Z,15.70
2022-10-20T14:35:43.032Z,15.20
2022-10-20T14:41:00.311Z,11.80
2022-10-20T14:43:54.325Z,20.90
2022-10-20T14:46:42.289Z,10.70
2022-10-20T14:49:21.523Z,13.00
2022-10-20T14:52:24.822Z,3.80
2022-10-20T14:54:54.001Z,11.60
2022-10-20T14:57:41.331Z,12.60
2022-10-20T15:00:44.666Z,8.80
2022-10-20T15:03:13.402Z,13.40
2022-10-20T15:05:45.457Z,11.60
2022-10-20T15:08:30.867Z,11.60
2022-10-20T15:11:01.100Z,18.50
2022-10-20T15:13:34.414Z,13.10
2022-10-20T15:16:08.087Z,13.30
2022-10-20T15:18:40.185Z,12.10
2022-10-20T15:21:12.507Z,16.30
2022-10-20T15:23:40.969Z,13.50
2022-10-20T15:26:15.010Z,17.00
2022-10-20T15:28:49.196Z,22.00
2022-10-20T15:31:22.943Z,19.80
2022-10-20T15:33:53.316Z,24.60
2022-10-20T15:36:29.033Z,18.00
2022-10-20T15:38:57.942Z,21.40
2022-10-20T15:41:38.137Z,19.60
2022-10-20T15:44:22.615Z,18.20
2022-10-20T15:46:53.589Z,17.90
2022-10-20T15:49:24.208Z,19.00
2022-10-20T15:51:52.562Z,14.90
2022-10-20T15:54:23.165Z,19.60
2022-10-20T15:56:54.443Z,17.30
2022-10-20T15:59:24.830Z,13.30
2022-10-20T16:01:58.954Z,16.30
2022-10-20T16:04:31.338Z,16.20
2022-10-20T16:07:02.914Z,14.20
2022-10-20T16:09:33.426Z,7.80
2022-10-20T16:12:02.189Z,10.30
2022-10-20T16:14:29.972Z,15.60
2022-10-20T16:17:03.551Z,14.60
2022-10-20T16:19:32.975Z,14.40
2022-10-20T16:22:02.875Z,7.70
2022-10-20T16:24:32.784Z,15.00
2022-10-20T16:32:20.625Z,14.20
2022-10-20T16:34:48.924Z,13.60
2022-10-20T16:37:16.816Z,11.60
2022-10-20T16:39:44.853Z,7.40
2022-10-20T16:42:13.035Z,14.60
2022-10-20T16:44:40.887Z,12.00
2022-10-20T16:47:11.936Z,15.90
2022-10-20T16:49:41.374Z,13.90
2022-10-20T16:52:09.379Z,18.00
2022-10-20T16:57:11.204Z,22.50
2022-10-20T16:59:39.771Z,16.20
2022-10-20T17:02:07.576Z,9.80
2022-10-20T17:04:36.854Z,18.60
2022-10-20T17:07:06.675Z,10.50
2022-10-20T17:09:35.595Z,11.20
2022-10-20T17:12:05.860Z,11.60
2022-10-20T17:14:37.606Z,13.40
2022-10-20T17:17:06.294Z,8.60
2022-10-20T17:19:34.706Z,9.90
2022-10-20T17:22:02.624Z,14.80
2022-10-20T17:24:31.944Z,12.80
2022-10-20T17:26:59.604Z,15.10
2022-10-20T17:29:27.392Z,12.80
2022-10-20T17:31:57.167Z,14.10
2022-10-20T17:34:26.567Z,12.00
2022-10-20T17:36:56.136Z,16.80
2022-10-20T17:39:25.338Z,10.10
2022-10-20T17:41:53.007Z,12.60
2022-10-20T17:44:20.816Z,13.40
2022-10-20T17:46:50.124Z,12.90
2022-10-20T17:49:18.054Z,14.10
2022-10-20T17:51:47.190Z,16.80
2022-10-20T17:54:15.646Z,16.10
2022-10-20T17:56:43.476Z,18.30
2022-10-20T18:04:18.992Z,18.90
2022-10-20T18:06:48.147Z,20.60
2022-10-20T18:09:18.747Z,17.50
2022-10-20T18:11:52.244Z,15.40
2022-10-20T18:14:21.615Z,15.90
2022-10-20T18:16:49.404Z,15.00
2022-10-20T18:19:22.265Z,11.70
2022-10-20T18:21:53.983Z,15.00
2022-10-20T18:24:22.268Z,11.40
2022-10-20T18:26:49.935Z,16.80
2022-10-20T18:29:19.516Z,13.30
2022-10-20T18:31:51.431Z,10.70
2022-10-20T18:34:20.735Z,14.50
2022-10-20T18:36:51.484Z,13.70
2022-10-20T18:39:21.169Z,19.40
2022-10-20T18:41:54.642Z,12.20
2022-10-20T18:44:24.736Z,12.70
2022-10-20T18:46:58.497Z,8.70
2022-10-20T18:49:29.029Z,14.40
2022-10-20T18:51:56.813Z,11.00
2022-10-20T18:54:25.488Z,15.40
2022-10-20T18:56:53.652Z,2.80
2022-10-20T18:59:24.677Z,5.00
2022-10-20T19:01:53.721Z,10.60
2022-10-20T19:04:24.496Z,4.30
2022-10-20T19:06:56.477Z,4.80
2022-10-20T19:09:25.829Z,8.90
2022-10-20T19:12:01.000Z,3.90
2022-10-20T19:14:32.763Z,8.10
2022-10-20T19:17:01.662Z,7.10
2022-10-20T19:19:31.644Z,5.70
2022-10-20T19:22:01.893Z,10.20
2022-10-20T19:24:29.897Z,4.90
2022-10-20T19:29:46.241Z,4.60
2022-10-20T19:32:15.321Z,9.50
2022-10-20T19:34:43.672Z,6.50
2022-10-20T19:37:12.003Z,9.80
2022-10-20T19:39:43.003Z,12.50
2022-10-20T19:42:11.631Z,5.30
2022-10-20T19:44:42.207Z,5.30
2022-10-20T19:47:10.355Z,10.80
2022-10-20T19:49:41.985Z,10.90
2022-10-20T19:52:12.791Z,6.60
2022-10-20T19:54:40.615Z,7.10
2022-10-20T19:57:10.922Z,7.20
2022-10-20T19:59:39.850Z,4.20
2022-10-20T20:02:07.509Z,4.30
2022-10-20T20:04:35.196Z,4.90
2022-10-20T20:07:05.971Z,3.90
2022-10-20T20:09:34.854Z,4.50
2022-10-20T20:12:03.946Z,3.70
2022-10-20T20:14:33.925Z,5.90
2022-10-20T20:17:01.631Z,5.50
2022-10-20T20:19:30.667Z,3.90
2022-10-20T20:21:58.502Z,2.40
2022-10-20T20:24:26.215Z,5.80
2022-10-20T20:26:53.991Z,5.10
2022-10-20T20:29:23.243Z,7.40
2022-10-20T20:31:52.349Z,5.50
2022-10-20T20:34:21.458Z,5.70
2022-10-20T20:36:52.351Z,5.70
2022-10-20T20:39:21.097Z,4.50
2022-10-20T20:41:50.035Z,3.90
2022-10-20T20:44:17.716Z,5.40
2022-10-20T20:46:45.970Z,4.70
2022-10-20T20:49:14.120Z,4.40
2022-10-20T20:51:41.826Z,5.20
2022-10-20T20:54:10.471Z,10.00
2022-10-20T20:56:38.750Z,3.40
2022-10-20T20:59:06.542Z,6.50
2022-10-20T21:01:34.314Z,5.30
2022-10-20T21:04:12.470Z,3.20
2022-10-20T21:07:02.225Z,3.60
2022-10-20T21:09:30.594Z,8.60
2022-10-20T21:11:58.431Z,4.80
2022-10-20T21:14:26.563Z,5.30
2022-10-20T21:16:54.771Z,5.70
2022-10-20T21:19:22.775Z,7.00
2022-10-20T21:21:58.007Z,7.50
2022-10-20T21:24:28.092Z,7.30
2022-10-20T21:26:56.050Z,4.60
2022-10-20T21:29:24.040Z,6.80
2022-10-20T21:31:51.837Z,4.60
2022-10-20T21:34:20.891Z,6.20
2022-10-20T21:36:48.640Z,4.20
2022-10-20T21:39:18.285Z,5.20
2022-10-20T21:41:46.736Z,5.30
2022-10-20T21:44:15.151Z,7.30
2022-10-20T21:46:50.327Z,7.70
2022-10-20T21:49:25.603Z,4.40
2022-10-20T21:51:57.559Z,4.30
2022-10-20T21:54:28.843Z,6.20
2022-10-20T21:56:58.055Z,6.90
2022-10-20T21:59:39.517Z,5.00
2022-10-20T22:02:14.991Z,5.80
2022-10-20T22:04:42.980Z,2.20
2022-10-20T22:07:11.199Z,4.30
2022-10-20T22:09:41.453Z,6.20
2022-10-20T22:12:13.313Z,6.80
2022-10-20T22:14:44.965Z,6.60
2022-10-20T22:17:15.336Z,7.20
2022-10-20T22:19:44.239Z,5.10
2022-10-20T22:22:12.215Z,5.60
2022-10-20T22:24:42.713Z,7.00
2022-10-20T22:27:20.014Z,5.00
2022-10-20T22:30:00.512Z,3.70
2022-10-20T22:32:28.610Z,6.00
2022-10-20T22:34:56.491Z,6.10
2022-10-20T22:37:25.109Z,6.20
2022-10-20T22:39:54.504Z,8.00
2022-10-20T22:42:25.516Z,6.40
2022-10-20T22:44:53.520Z,6.50
2022-10-20T22:47:21.678Z,8.40
2022-10-20T22:49:49.487Z,8.80
2022-10-20T22:52:17.397Z,7.30
2022-10-20T22:54:45.276Z,6.90
2022-10-20T22:57:15.752Z,6.40
2022-10-20T22:59:46.597Z,7.20
2022-10-20T23:02:14.939Z,6.10
2022-10-20T23:04:44.882Z,5.90
2022-10-20T23:07:12.915Z,5.40
2022-10-20T23:09:40.954Z,10.30
2022-10-20T23:12:09.543Z,5.20
2022-10-20T23:14:37.527Z,7.30
2022-10-20T23:17:05.545Z,5.50
2022-10-20T23:19:35.926Z,4.60
2022-10-20T23:22:03.751Z,5.80
2022-10-20T23:24:32.308Z,4.00
2022-10-20T23:27:00.177Z,2.90
2022-10-20T23:29:28.380Z,3.80
2022-10-20T23:31:58.860Z,4.80
2022-10-20T23:34:27.896Z,3.90
2022-10-20T23:36:58.353Z,4.50
2022-10-20T23:39:26.698Z,5.60
2022-10-20T23:41:54.725Z,6.70
2022-10-20T23:44:23.662Z,5.60
2022-10-20T23:46:52.030Z,4.00
2022-10-20T23:49:19.701Z,3.40
2022-10-20T23:51:50.053Z,2.30
2022-10-20T23:54:19.230Z,2.30
2022-10-20T23:56:47.068Z,3.10
2022-10-20T23:59:15.300Z,3.60
